Terminal Aerodrome Forecast
Issued by NWS Upton, NY

Home | Current Version | Previous Version | Text Only | Print | Product List | Glossary On
Versions: 1 2 3 4 5 6 7 8 9 10 11 12 13 14 15 16 17 18 19 20 21 22 23 24 25 26 27
725
FTUS41 KOKX 092033 AAA
TAFEWR
TAF AMD
KEWR 092033Z 0921/1024 VRB03KT P6SM OVC020
     FM100200 VRB03KT 1SM -SN BR BKN007 OVC010
      TEMPO 1007/1011 1/2SM SN OVC006
     FM101300 28009KT P6SM SCT015 BKN030
     FM101700 27015G23KT P6SM BKN040=

USA.gov is the U.S. government's official web portal to all federal, state and local government web resources and services.